Time;durP1;ratioP1;P1;durP2;ratioP2;P2;SDS_P1;SDS_P2;PMS_P1;PMS_P2;Temp;Humidity;BMP_temperature;BMP_pressure;BME280_temperature;BME280_humidity;BME280_pressure;Samples;Min_cycle;Max_cycle;Signal;HPM_P1;HPM_P2
2021/05/30 00:03:00;;;;;;;2.58;1.52;;;23.60;39.30;;;;;;6273250;28;20378;-78
2021/05/30 00:06:01;;;;;;;2.28;1.65;;;23.50;39.20;;;;;;6289437;28;20029;-77
2021/05/30 00:09:05;;;;;;;4.40;1.73;;;23.40;39.40;;;;;;6289759;28;20044;-77
2021/05/30 00:12:07;;;;;;;2.75;1.73;;;23.40;39.40;;;;;;6289652;28;20069;-78
2021/05/30 00:15:12;;;;;;;2.25;1.50;;;23.40;39.50;;;;;;6272845;28;20139;-78
2021/05/30 00:18:14;;;;;;;3.55;1.73;;;23.30;39.50;;;;;;6272667;28;20037;-77
2021/05/30 00:21:15;;;;;;;2.33;1.75;;;23.20;39.60;;;;;;6290015;28;20405;-77
2021/05/30 00:24:16;;;;;;;4.07;1.40;;;23.10;39.80;;;;;;6273051;28;20063;-78
2021/05/30 00:27:17;;;;;;;6.57;1.45;;;23.00;40.00;;;;;;6287975;28;20037;-78
2021/05/30 00:30:18;;;;;;;2.28;1.38;;;23.00;40.30;;;;;;6289262;28;20033;-78
2021/05/30 00:33:19;;;;;;;2.08;1.40;;;22.90;40.40;;;;;;6270997;28;20055;-77
2021/05/30 00:36:19;;;;;;;3.92;1.80;;;22.80;40.50;;;;;;6255771;28;20040;-77
2021/05/30 00:39:20;;;;;;;4.00;2.13;;;22.70;40.40;;;;;;6287781;28;20454;-79
2021/05/30 00:42:21;;;;;;;1.40;1.30;;;22.60;40.50;;;;;;6288830;28;20037;-77
2021/05/30 00:45:22;;;;;;;2.85;1.55;;;22.60;40.50;;;;;;6272526;28;20032;-78
2021/05/30 00:48:24;;;;;;;3.45;1.60;;;22.60;40.90;;;;;;6271345;28;20064;-77
2021/05/30 00:51:25;;;;;;;1.95;1.55;;;22.50;41.10;;;;;;6269166;28;20041;-78
2021/05/30 00:54:26;;;;;;;4.47;1.30;;;22.50;41.30;;;;;;6248338;28;20072;-78
2021/05/30 00:57:27;;;;;;;1.65;1.55;;;22.40;41.50;;;;;;6282772;28;20048;-78
2021/05/30 01:00:28;;;;;;;2.80;1.65;;;22.30;41.60;;;;;;6271543;28;20032;-78
2021/05/30 01:03:36;;;;;;;1.50;1.35;;;22.20;41.70;;;;;;6288309;28;20037;-78
2021/05/30 01:06:38;;;;;;;1.80;1.30;;;22.20;41.90;;;;;;6287998;28;20044;-78
2021/05/30 01:09:40;;;;;;;2.30;1.80;;;22.20;41.90;;;;;;6271414;28;20063;-78
2021/05/30 01:12:42;;;;;;;2.47;1.58;;;22.10;41.70;;;;;;6254553;28;20037;-79
2021/05/30 01:15:46;;;;;;;8.30;1.60;;;22.10;41.60;;;;;;6272237;28;20053;-78
2021/05/30 01:18:48;;;;;;;1.98;1.33;;;22.10;41.60;;;;;;6272690;28;20048;-78
2021/05/30 01:21:49;;;;;;;3.28;1.55;;;22.00;41.60;;;;;;6236847;28;20030;-78
2021/05/30 01:24:50;;;;;;;1.88;1.60;;;22.00;41.80;;;;;;6263125;28;20221;-77
2021/05/30 01:27:51;;;;;;;1.75;1.45;;;21.90;41.90;;;;;;6246114;28;20030;-77
2021/05/30 01:30:52;;;;;;;3.15;1.45;;;21.90;42.20;;;;;;6246031;28;20065;-78
2021/05/30 01:33:54;;;;;;;2.42;1.50;;;21.80;42.20;;;;;;6262070;28;20098;-77
2021/05/30 01:36:55;;;;;;;2.72;1.73;;;21.80;42.30;;;;;;6245070;28;20052;-78
2021/05/30 01:39:56;;;;;;;2.25;1.40;;;21.80;42.20;;;;;;6245519;28;20434;-78
2021/05/30 01:42:57;;;;;;;2.05;1.55;;;21.80;42.40;;;;;;6245836;28;20045;-77
2021/05/30 01:45:59;;;;;;;6.28;1.63;;;21.80;42.40;;;;;;6245845;28;20112;-77
2021/05/30 01:49:00;;;;;;;2.92;1.58;;;21.70;42.50;;;;;;6246388;28;20508;-77
2021/05/30 01:52:01;;;;;;;2.75;1.30;;;21.60;42.50;;;;;;6280735;28;20037;-78
2021/05/30 01:55:03;;;;;;;2.90;1.25;;;21.60;42.70;;;;;;6247134;28;20065;-79
2021/05/30 01:58:04;;;;;;;4.43;1.90;;;21.50;42.90;;;;;;6263611;28;20065;-78
2021/05/30 02:01:05;;;;;;;1.60;1.30;;;21.50;43.00;;;;;;6263382;28;20040;-78
2021/05/30 02:04:07;;;;;;;4.50;1.67;;;21.40;43.30;;;;;;6245855;28;20366;-77
2021/05/30 02:07:09;;;;;;;4.22;1.48;;;21.30;43.70;;;;;;6230475;28;20029;-77
2021/05/30 02:10:13;;;;;;;4.72;1.60;;;21.20;43.90;;;;;;6247915;28;20109;-77
2021/05/30 02:13:15;;;;;;;3.78;1.50;;;21.20;44.10;;;;;;6247997;28;20385;-78
2021/05/30 02:16:16;;;;;;;1.92;1.65;;;21.10;44.00;;;;;;6247847;28;20466;-78
2021/05/30 02:19:17;;;;;;;3.80;1.38;;;21.10;44.20;;;;;;6233305;28;20045;-78
2021/05/30 02:22:18;;;;;;;2.58;1.65;;;21.10;44.40;;;;;;6288204;28;20362;-78
2021/05/30 02:25:19;;;;;;;1.73;1.42;;;21.00;44.60;;;;;;6288138;28;20105;-78
2021/05/30 02:28:20;;;;;;;2.13;1.42;;;20.90;44.60;;;;;;6254667;28;20032;-78
2021/05/30 02:31:21;;;;;;;2.53;1.67;;;20.80;44.70;;;;;;6272016;28;20060;-78
2021/05/30 02:34:22;;;;;;;9.85;2.05;;;20.80;44.70;;;;;;6251822;28;20060;-78
2021/05/30 02:37:23;;;;;;;1.90;1.25;;;20.70;44.80;;;;;;6280105;28;20041;-78
2021/05/30 02:40:24;;;;;;;2.47;1.60;;;20.70;45.00;;;;;;6271661;28;20477;-78
2021/05/30 02:43:25;;;;;;;2.20;1.90;;;20.70;45.00;;;;;;6273506;28;20040;-78
2021/05/30 02:46:26;;;;;;;3.97;1.80;;;20.60;45.60;;;;;;6271343;28;20424;-78
2021/05/30 02:49:29;;;;;;;4.00;1.50;;;20.60;45.00;;;;;;6253767;28;20049;-78
2021/05/30 02:52:30;;;;;;;3.40;1.55;;;20.60;45.00;;;;;;6287867;28;20037;-78
2021/05/30 02:55:31;;;;;;;1.77;1.40;;;20.60;45.20;;;;;;6286587;28;20124;-77
2021/05/30 02:58:32;;;;;;;4.55;1.38;;;20.60;45.20;;;;;;6286847;28;20029;-78
2021/05/30 03:01:33;;;;;;;13.55;1.70;;;20.60;45.20;;;;;;6254286;28;20033;-78
2021/05/30 03:04:34;;;;;;;3.05;1.50;;;20.60;45.40;;;;;;6271176;28;20469;-78
2021/05/30 03:07:35;;;;;;;6.05;1.73;;;20.50;45.30;;;;;;6288621;28;20054;-78
2021/05/30 03:10:36;;;;;;;5.40;1.58;;;20.50;45.30;;;;;;6298501;28;20437;-79
2021/05/30 03:13:37;;;;;;;1.45;1.35;;;20.50;45.30;;;;;;6273582;28;20411;-78
2021/05/30 03:16:38;;;;;;;5.13;1.55;;;20.50;45.20;;;;;;6283143;28;20131;-78
2021/05/30 03:19:40;;;;;;;2.13;1.33;;;20.50;45.10;;;;;;6279511;28;20500;-79
2021/05/30 03:22:41;;;;;;;8.30;1.67;;;20.60;45.00;;;;;;6291965;28;20048;-78
2021/05/30 03:25:42;;;;;;;3.00;1.23;;;20.60;44.80;;;;;;6292203;28;20047;-78
2021/05/30 03:28:46;;;;;;;5.32;1.35;;;20.60;44.80;;;;;;6292012;28;20067;-79
2021/05/30 03:31:47;;;;;;;2.28;1.55;;;20.60;44.80;;;;;;6287940;28;20029;-78
2021/05/30 03:34:48;;;;;;;1.50;1.35;;;20.60;44.60;;;;;;6266593;28;20056;-78
2021/05/30 03:37:49;;;;;;;1.95;1.40;;;20.60;44.40;;;;;;6282650;28;20043;-77
2021/05/30 03:41:01;;;;;;;3.72;1.50;;;20.60;44.40;;;;;;6299432;28;20037;-78
2021/05/30 03:44:04;;;;;;;4.32;1.27;;;20.60;44.40;;;;;;6272080;28;20032;-77
2021/05/30 03:47:05;;;;;;;1.77;1.40;;;20.60;44.40;;;;;;6265874;28;20036;-77
2021/05/30 03:50:07;;;;;;;3.70;1.65;;;20.60;44.40;;;;;;6283562;28;20089;-78
2021/05/30 03:53:09;;;;;;;2.65;1.65;;;20.50;44.50;;;;;;6282698;28;20056;-77
2021/05/30 03:56:09;;;;;;;1.88;1.23;;;20.50;44.40;;;;;;6281383;28;20047;-77
2021/05/30 03:59:10;;;;;;;1.02;1.00;;;20.50;44.50;;;;;;6265774;28;20036;-77
2021/05/30 04:02:11;;;;;;;3.63;1.30;;;20.40;44.60;;;;;;6299523;28;20036;-77
2021/05/30 04:05:14;;;;;;;2.75;1.67;;;20.40;44.60;;;;;;6282248;28;20037;-79
2021/05/30 04:08:14;;;;;;;1.73;1.30;;;20.30;44.70;;;;;;6282313;28;20478;-77
2021/05/30 04:11:16;;;;;;;3.78;1.48;;;20.30;45.00;;;;;;6282179;28;20029;-78
2021/05/30 04:14:17;;;;;;;10.95;1.63;;;20.10;45.40;;;;;;6282418;28;20032;-78
2021/05/30 04:17:17;;;;;;;1.33;1.15;;;20.00;45.80;;;;;;6281931;28;20079;-79
2021/05/30 04:20:20;;;;;;;6.28;1.60;;;19.90;46.10;;;;;;6300646;28;20525;-79
2021/05/30 04:23:21;;;;;;;3.83;1.40;;;19.80;46.40;;;;;;6264537;28;20338;-78
2021/05/30 04:26:22;;;;;;;1.92;1.33;;;19.70;46.50;;;;;;6298724;28;20032;-78
2021/05/30 04:29:23;;;;;;;4.70;1.55;;;19.70;46.70;;;;;;6298724;28;20036;-78
2021/05/30 04:32:24;;;;;;;8.93;1.52;;;19.60;46.80;;;;;;6297200;28;20044;-78
2021/05/30 04:35:25;;;;;;;5.32;1.70;;;19.60;46.90;;;;;;6299965;28;20488;-78
2021/05/30 04:38:25;;;;;;;2.33;1.60;;;19.60;46.90;;;;;;6300608;28;20040;-78
2021/05/30 04:41:26;;;;;;;4.55;1.55;;;19.50;46.90;;;;;;6300177;28;20037;-79
2021/05/30 04:44:28;;;;;;;2.20;1.30;;;19.50;46.90;;;;;;6284878;28;20453;-78
2021/05/30 04:47:29;;;;;;;3.20;1.63;;;19.50;46.90;;;;;;6306071;28;20373;-78
2021/05/30 04:50:30;;;;;;;3.75;1.40;;;19.50;47.00;;;;;;6286736;28;20033;-78
2021/05/30 04:53:42;;;;;;;3.20;1.52;;;19.50;46.90;;;;;;6274264;28;20056;-78
2021/05/30 04:56:43;;;;;;;2.40;1.55;;;19.50;46.90;;;;;;6256529;28;20106;-78
2021/05/30 04:59:44;;;;;;;3.10;1.60;;;19.60;46.80;;;;;;6272969;28;20044;-78
2021/05/30 05:02:45;;;;;;;2.90;1.77;;;19.60;46.90;;;;;;6286671;28;20114;-77
2021/05/30 05:05:46;;;;;;;2.53;1.70;;;19.60;46.80;;;;;;6289362;28;20050;-78
2021/05/30 05:08:48;;;;;;;4.80;1.58;;;19.60;46.90;;;;;;6305374;28;20028;-77
2021/05/30 05:11:49;;;;;;;2.60;1.63;;;19.70;47.10;;;;;;6289243;28;20123;-77
2021/05/30 05:14:50;;;;;;;4.30;1.58;;;19.70;47.10;;;;;;6305509;28;20042;-78
2021/05/30 05:17:51;;;;;;;1.90;1.30;;;19.70;47.20;;;;;;6289084;28;20459;-78
2021/05/30 05:20:52;;;;;;;4.00;1.60;;;19.70;47.20;;;;;;6288719;28;20110;-78
2021/05/30 05:23:57;;;;;;;2.88;1.60;;;19.70;47.20;;;;;;6272777;28;20029;-77
2021/05/30 05:26:58;;;;;;;4.35;1.58;;;19.80;47.20;;;;;;6288953;28;20399;-78
2021/05/30 05:29:59;;;;;;;1.80;1.45;;;19.80;47.20;;;;;;6290277;28;20029;-78
2021/05/30 05:33:00;;;;;;;3.00;1.27;;;19.80;47.10;;;;;;6296362;28;20040;-78
2021/05/30 05:36:01;;;;;;;1.30;1.20;;;19.80;46.90;;;;;;6263626;28;20101;-78
2021/05/30 05:39:04;;;;;;;1.85;1.20;;;19.90;46.10;;;;;;6280384;28;20052;-79
2021/05/30 05:42:06;;;;;;;2.47;1.52;;;20.00;45.60;;;;;;6298200;28;20040;-77
2021/05/30 05:45:07;;;;;;;1.55;1.27;;;20.10;45.20;;;;;;6280050;28;20125;-77
2021/05/30 05:48:13;;;;;;;5.25;1.40;;;20.20;44.70;;;;;;6278691;28;20032;-77
2021/05/30 05:51:14;;;;;;;1.75;1.30;;;20.20;44.20;;;;;;6280940;28;20465;-78
2021/05/30 05:54:15;;;;;;;2.63;1.60;;;20.30;44.00;;;;;;6263758;28;20149;-79
2021/05/30 05:57:16;;;;;;;2.35;1.20;;;20.30;43.60;;;;;;6280070;28;20040;-78
2021/05/30 06:00:21;;;;;;;2.97;1.30;;;20.30;43.50;;;;;;6280508;28;20115;-78
2021/05/30 06:03:21;;;;;;;1.25;1.10;;;20.40;43.40;;;;;;6279851;28;20116;-77
2021/05/30 06:06:24;;;;;;;1.80;1.30;;;20.40;43.10;;;;;;6297648;28;20411;-77
2021/05/30 06:09:26;;;;;;;1.70;1.25;;;20.50;43.00;;;;;;6297595;28;20097;-78
2021/05/30 06:12:26;;;;;;;2.05;1.30;;;20.60;42.60;;;;;;6279936;28;20480;-78
2021/05/30 06:15:28;;;;;;;2.53;1.85;;;20.60;42.50;;;;;;6295438;28;20041;-79
2021/05/30 06:18:29;;;;;;;3.55;1.70;;;20.70;42.20;;;;;;6279883;28;20067;-80
2021/05/30 06:21:30;;;;;;;2.38;1.27;;;20.80;41.90;;;;;;6262361;28;20094;-78
2021/05/30 06:24:32;;;;;;;1.33;1.10;;;20.80;41.80;;;;;;6258009;28;20036;-78
2021/05/30 06:27:32;;;;;;;2.40;1.42;;;20.80;41.70;;;;;;6282197;28;20041;-78
2021/05/30 06:30:39;;;;;;;4.43;1.30;;;20.90;41.50;;;;;;6279653;28;20040;-77
2021/05/30 06:33:40;;;;;;;3.13;1.45;;;21.00;41.50;;;;;;6260622;28;20114;-78
2021/05/30 06:36:46;;;;;;;1.67;1.30;;;21.20;41.40;;;;;;6278829;28;20045;-80
2021/05/30 06:39:47;;;;;;;1.70;1.20;;;21.20;41.10;;;;;;6254814;28;20041;-78
2021/05/30 06:42:49;;;;;;;1.65;1.15;;;21.40;41.00;;;;;;6254561;28;20051;-79
2021/05/30 06:45:50;;;;;;;4.78;1.40;;;21.50;41.00;;;;;;6257350;28;20063;-77
2021/05/30 06:48:51;;;;;;;1.55;1.10;;;21.60;40.80;;;;;;6286450;28;20041;-79
2021/05/30 06:51:52;;;;;;;4.45;1.50;;;21.70;40.30;;;;;;6302655;28;20044;-78
2021/05/30 06:54:53;;;;;;;3.95;1.50;;;21.80;40.20;;;;;;6323197;28;20036;-77
2021/05/30 06:57:54;;;;;;;1.63;1.27;;;21.80;40.00;;;;;;6291042;28;20040;-80
2021/05/30 07:00:58;;;;;;;2.08;1.05;;;22.00;39.80;;;;;;6308261;28;20039;-86
2021/05/30 07:03:59;;;;;;;4.88;1.50;;;22.10;39.50;;;;;;6291904;28;20414;-78
2021/05/30 07:06:59;;;;;;;2.47;1.25;;;22.30;39.50;;;;;;6326315;28;20040;-77
2021/05/30 07:10:00;;;;;;;4.10;1.67;;;22.30;39.20;;;;;;6295658;28;20033;-78
2021/05/30 07:13:01;;;;;;;5.10;1.30;;;22.40;39.20;;;;;;6266448;28;20366;-76
2021/05/30 07:16:03;;;;;;;1.83;1.40;;;22.60;38.90;;;;;;6283149;28;20051;-76
2021/05/30 07:19:04;;;;;;;4.82;1.52;;;23.00;38.40;;;;;;6299505;28;20431;-76
2021/05/30 07:22:05;;;;;;;4.43;1.50;;;23.30;37.90;;;;;;6277230;28;20032;-76
2021/05/30 07:25:06;;;;;;;1.85;1.30;;;23.40;37.60;;;;;;6275062;28;20064;-76
2021/05/30 07:28:07;;;;;;;2.67;1.45;;;23.50;37.40;;;;;;6276390;28;20366;-78
2021/05/30 07:31:09;;;;;;;2.50;1.40;;;23.50;37.10;;;;;;6275614;28;20040;-77
2021/05/30 07:34:11;;;;;;;1.90;1.30;;;23.50;37.10;;;;;;6295296;28;20037;-78
2021/05/30 07:37:12;;;;;;;3.40;2.03;;;23.40;37.00;;;;;;6265811;28;20047;-79
2021/05/30 07:40:13;;;;;;;4.65;1.67;;;23.40;37.10;;;;;;6281569;28;20064;-77
2021/05/30 07:43:14;;;;;;;1.98;1.50;;;23.40;37.10;;;;;;6266093;28;20040;-75
2021/05/30 07:46:15;;;;;;;1.77;1.38;;;23.20;37.20;;;;;;6266016;28;20040;-76
2021/05/30 07:49:16;;;;;;;1.52;1.33;;;23.10;37.40;;;;;;6266183;28;20029;-76
2021/05/30 07:52:17;;;;;;;1.73;1.27;;;23.00;37.60;;;;;;6282481;28;20059;-76
2021/05/30 07:55:18;;;;;;;2.05;1.15;;;23.00;37.50;;;;;;6282416;28;20041;-75
2021/05/30 07:58:19;;;;;;;4.25;1.33;;;23.10;37.30;;;;;;6300341;28;20048;-79
2021/05/30 08:01:20;;;;;;;3.40;1.25;;;23.30;37.30;;;;;;6264945;28;20122;-76
2021/05/30 08:04:21;;;;;;;1.63;1.50;;;23.40;37.10;;;;;;6267495;28;20453;-76
2021/05/30 08:07:23;;;;;;;1.33;1.20;;;23.50;36.80;;;;;;6281923;28;20111;-77
2021/05/30 08:10:26;;;;;;;2.00;1.30;;;23.50;36.70;;;;;;6298986;28;20453;-77
2021/05/30 08:13:27;;;;;;;2.75;1.70;;;23.50;36.50;;;;;;6281759;28;20407;-76
2021/05/30 08:16:28;;;;;;;3.60;1.95;;;23.50;36.50;;;;;;6282097;28;20041;-77
2021/05/30 08:19:29;;;;;;;2.28;1.55;;;23.50;36.60;;;;;;6282706;28;20048;-78
2021/05/30 08:22:30;;;;;;;6.38;1.77;;;23.60;36.60;;;;;;6282075;28;20347;-78
2021/05/30 08:25:31;;;;;;;5.65;1.70;;;23.70;36.60;;;;;;6298038;28;20079;-77
2021/05/30 08:28:32;;;;;;;2.67;1.40;;;23.80;36.60;;;;;;6281808;28;20043;-76
2021/05/30 08:31:33;;;;;;;4.72;1.42;;;23.80;36.60;;;;;;6271110;28;20156;-77
2021/05/30 08:34:35;;;;;;;1.92;1.45;;;23.80;36.80;;;;;;6256535;28;20036;-77
2021/05/30 08:37:37;;;;;;;4.68;1.77;;;23.70;36.90;;;;;;6281067;28;20041;-77
2021/05/30 08:40:39;;;;;;;2.70;1.52;;;23.70;37.10;;;;;;6264954;28;20477;-77
2021/05/30 08:43:40;;;;;;;3.28;1.15;;;23.80;37.20;;;;;;6281090;28;20032;-77
2021/05/30 08:46:42;;;;;;;2.67;1.60;;;23.80;37.00;;;;;;6281204;28;20362;-77
2021/05/30 08:49:43;;;;;;;7.30;1.63;;;23.90;37.00;;;;;;6276363;28;20032;-77
2021/05/30 08:52:44;;;;;;;2.75;1.45;;;23.90;37.10;;;;;;6288283;28;20033;-77
2021/05/30 08:55:45;;;;;;;1.90;1.25;;;24.00;37.20;;;;;;6280636;28;20537;-78
2021/05/30 08:58:48;;;;;;;1.88;1.52;;;24.10;37.10;;;;;;6298643;28;20484;-77
2021/05/30 09:01:49;;;;;;;2.03;1.58;;;24.10;37.00;;;;;;6317471;28;20066;-76
2021/05/30 09:05:09;;;;;;;3.90;1.10;;;24.20;36.90;;;;;;6298067;28;20033;-76
2021/05/30 09:08:29;;;;;;;1.90;1.38;;;24.30;36.90;;;;;;6268114;28;20037;-76
2021/05/30 09:11:42;;;;;;;2.25;1.42;;;24.30;36.80;;;;;;6278101;28;20040;-77
2021/05/30 09:14:45;;;;;;;3.60;1.80;;;24.30;36.80;;;;;;6278905;28;20043;-76
2021/05/30 09:17:46;;;;;;;1.98;1.17;;;24.50;36.80;;;;;;6277646;28;20032;-83
2021/05/30 09:20:53;;;;;;;2.17;1.42;;;24.60;36.70;;;;;;6280568;28;20043;-77
2021/05/30 09:23:54;;;;;;;1.73;1.35;;;24.70;36.80;;;;;;6295549;28;20420;-78
2021/05/30 09:27:08;;;;;;;2.38;1.30;;;24.80;36.70;;;;;;6295532;28;20036;-77
2021/05/30 09:30:20;;;;;;;3.25;1.30;;;24.90;36.50;;;;;;6262539;28;20498;-77
2021/05/30 09:33:23;;;;;;;3.35;1.30;;;25.00;36.30;;;;;;6277959;28;20044;-77
2021/05/30 09:36:24;;;;;;;2.08;1.70;;;25.10;36.00;;;;;;6263304;28;20056;-76
2021/05/30 09:39:45;;;;;;;1.75;1.40;;;25.20;35.50;;;;;;6263967;28;20036;-76
2021/05/30 09:42:46;;;;;;;1.83;1.17;;;25.30;34.80;;;;;;6293755;28;20033;-76
2021/05/30 09:46:00;;;;;;;1.52;1.20;;;25.30;34.40;;;;;;6266904;28;20036;-78
2021/05/30 09:49:01;;;;;;;1.58;1.05;;;25.40;33.90;;;;;;6275235;28;20110;-76
2021/05/30 09:52:02;;;;;;;1.42;1.20;;;25.50;33.70;;;;;;6260649;28;20040;-76
2021/05/30 09:55:14;;;;;;;1.65;1.48;;;25.60;33.50;;;;;;6276958;28;20043;-76
2021/05/30 09:58:19;;;;;;;4.63;1.30;;;25.50;33.20;;;;;;6276585;28;20508;-76
2021/05/30 10:01:21;;;;;;;1.77;1.40;;;25.50;33.00;;;;;;6276266;28;20028;-76
2021/05/30 10:04:24;;;;;;;3.25;1.45;;;25.50;33.00;;;;;;6276906;28;20031;-76
2021/05/30 10:07:26;;;;;;;3.38;1.70;;;25.60;33.00;;;;;;6260774;28;20047;-76
2021/05/30 10:10:28;;;;;;;6.40;1.20;;;25.70;32.90;;;;;;6294737;28;20028;-77
2021/05/30 10:13:29;;;;;;;2.28;1.50;;;25.80;33.00;;;;;;6275061;28;20028;-76
2021/05/30 10:16:32;;;;;;;1.45;1.00;;;25.80;33.00;;;;;;6276791;28;20051;-76
2021/05/30 10:19:40;;;;;;;1.85;1.17;;;25.90;33.00;;;;;;6276892;28;20341;-76
2021/05/30 10:22:42;;;;;;;2.58;1.30;;;25.90;32.90;;;;;;6271435;28;20031;-76
2021/05/30 10:25:44;;;;;;;3.55;1.25;;;26.00;32.80;;;;;;6266025;28;20033;-76
2021/05/30 10:28:47;;;;;;;2.65;1.70;;;26.00;32.60;;;;;;6273451;28;20067;-76
2021/05/30 10:31:48;;;;;;;1.77;1.00;;;26.10;32.60;;;;;;6270714;28;20061;-76
2021/05/30 10:35:25;;;;;;;1.52;1.17;;;26.10;32.60;;;;;;6298394;28;20131;-78
2021/05/30 10:38:41;;;;;;;3.85;1.50;;;26.10;32.50;;;;;;6277924;28;20511;-77
2021/05/30 10:42:18;;;;;;;6.13;1.40;;;26.20;32.30;;;;;;6276432;28;20049;-76
2021/05/30 10:45:19;;;;;;;3.53;1.20;;;26.30;32.20;;;;;;6261951;28;20468;-76
2021/05/30 10:48:20;;;;;;;3.17;1.50;;;26.40;31.80;;;;;;6280125;28;20078;-76
2021/05/30 10:51:29;;;;;;;2.55;1.27;;;26.40;30.80;;;;;;6299469;28;20115;-76
2021/05/30 10:54:33;;;;;;;2.10;1.17;;;26.50;30.80;;;;;;6279832;28;20111;-76
2021/05/30 10:57:38;;;;;;;1.30;1.17;;;26.50;30.80;;;;;;6297701;28;20059;-76
2021/05/30 11:00:39;;;;;;;1.80;1.20;;;26.70;30.50;;;;;;6298892;28;20116;-76
2021/05/30 11:03:52;;;;;;;1.35;1.20;;;27.70;29.80;;;;;;6287535;28;20472;-77
2021/05/30 11:07:03;;;;;;;3.05;1.08;;;29.10;28.50;;;;;;6305799;28;20100;-77
2021/05/30 11:10:05;;;;;;;1.30;1.17;;;30.30;27.20;;;;;;6323461;28;20042;-77
2021/05/30 11:13:15;;;;;;;2.15;1.58;;;31.30;26.30;;;;;;6306504;28;20094;-77
2021/05/30 11:16:21;;;;;;;1.77;1.40;;;32.40;25.60;;;;;;6305465;28;20040;-76
2021/05/30 11:19:22;;;;;;;1.30;1.02;;;33.20;24.50;;;;;;6320956;28;20116;-76
2021/05/30 11:22:23;;;;;;;3.00;1.15;;;33.70;23.90;;;;;;6273545;28;20446;-76
2021/05/30 11:25:24;;;;;;;1.98;1.20;;;33.90;23.50;;;;;;6271959;28;20040;-76
2021/05/30 11:28:28;;;;;;;6.03;1.20;;;34.00;23.40;;;;;;6272302;28;20043;-76
2021/05/30 11:31:29;;;;;;;1.15;1.05;;;34.30;23.30;;;;;;6272524;28;20033;-76
2021/05/30 11:34:33;;;;;;;1.02;1.00;;;34.60;23.10;;;;;;6278966;28;20339;-75
2021/05/30 11:37:33;;;;;;;2.53;1.30;;;34.90;22.70;;;;;;6278951;28;20037;-76
2021/05/30 11:40:35;;;;;;;4.88;2.00;;;35.00;22.20;;;;;;6263503;28;20396;-76
2021/05/30 11:43:37;;;;;;;1.23;1.10;;;35.00;22.10;;;;;;6297005;28;20029;-75
2021/05/30 11:47:00;;;;;;;2.60;1.10;;;35.20;22.00;;;;;;6297730;28;20025;-76
2021/05/30 11:50:02;;;;;;;1.35;1.20;;;35.20;21.60;;;;;;6296883;28;20115;-76
2021/05/30 11:53:07;;;;;;;2.67;1.23;;;35.10;21.70;;;;;;6280441;28;20093;-76
2021/05/30 11:56:09;;;;;;;2.10;1.10;;;35.10;21.70;;;;;;6279576;28;20044;-76
2021/05/30 11:59:10;;;;;;;2.30;1.38;;;35.20;21.50;;;;;;6263342;28;20133;-77
2021/05/30 12:02:27;;;;;;;2.25;1.50;;;35.30;21.60;;;;;;6263060;28;20044;-77
2021/05/30 12:05:28;;;;;;;3.45;1.90;;;35.50;21.40;;;;;;6294702;28;20067;-77
2021/05/30 12:08:30;;;;;;;3.42;1.75;;;35.40;21.10;;;;;;6259561;28;20438;-76
2021/05/30 12:11:31;;;;;;;3.38;1.65;;;35.20;20.90;;;;;;6269255;28;20032;-76
2021/05/30 12:14:32;;;;;;;1.85;1.40;;;35.20;21.20;;;;;;6279032;28;20052;-76
2021/05/30 12:17:35;;;;;;;4.18;1.70;;;35.20;20.90;;;;;;6296268;28;20045;-76
2021/05/30 12:21:27;;;;;;;5.43;1.48;;;35.20;20.70;;;;;;6279421;28;20047;-76
2021/05/30 12:24:35;;;;;;;4.13;1.50;;;35.10;20.80;;;;;;6294377;28;20037;-76
2021/05/30 12:27:36;;;;;;;4.20;1.90;;;35.30;20.90;;;;;;6263070;28;20432;-76
2021/05/30 12:30:38;;;;;;;2.85;1.77;;;35.40;20.60;;;;;;6281274;28;20467;-77
2021/05/30 12:33:54;;;;;;;4.57;1.60;;;35.30;20.30;;;;;;6272044;28;20129;-78
2021/05/30 12:36:56;;;;;;;2.22;1.38;;;35.00;20.50;;;;;;6288531;28;20043;-77
2021/05/30 12:40:00;;;;;;;4.95;1.30;;;35.00;20.40;;;;;;6271642;28;20481;-77
2021/05/30 12:43:01;;;;;;;2.25;1.40;;;35.00;20.30;;;;;;6254659;28;20047;-77
2021/05/30 12:46:06;;;;;;;2.15;1.60;;;35.10;20.20;;;;;;6272174;28;20037;-77
2021/05/30 12:49:16;;;;;;;2.08;1.50;;;35.10;20.10;;;;;;6271626;28;20388;-77
2021/05/30 12:52:17;;;;;;;3.45;1.42;;;35.20;20.00;;;;;;6265877;28;20059;-78
2021/05/30 12:55:21;;;;;;;6.55;1.40;;;35.30;19.90;;;;;;6272648;28;20374;-77
2021/05/30 12:58:22;;;;;;;2.63;1.52;;;35.70;19.50;;;;;;6271249;28;20037;-77
2021/05/30 13:01:24;;;;;;;6.25;1.58;;;36.10;19.60;;;;;;6280077;28;20025;-77
2021/05/30 13:04:27;;;;;;;3.40;1.13;;;36.40;18.80;;;;;;6256568;28;20458;-77
2021/05/30 13:07:35;;;;;;;3.47;1.80;;;36.80;18.40;;;;;;6271131;28;20044;-77
2021/05/30 13:10:49;;;;;;;2.65;1.30;;;37.00;18.20;;;;;;6273420;28;20029;-79
2021/05/30 13:13:49;;;;;;;3.78;1.30;;;37.00;18.40;;;;;;6270831;28;20021;-77
2021/05/30 13:16:50;;;;;;;2.53;1.30;;;37.40;18.10;;;;;;6253179;28;20041;-77
2021/05/30 13:20:03;;;;;;;2.15;1.00;;;38.10;17.80;;;;;;6270273;28;20032;-78
2021/05/30 13:23:09;;;;;;;2.00;1.23;;;38.90;17.30;;;;;;6286271;28;20060;-78
2021/05/30 13:26:11;;;;;;;1.10;1.00;;;39.70;16.90;;;;;;6287626;28;20036;-78
2021/05/30 13:29:18;;;;;;;2.45;0.98;;;40.50;17.00;;;;;;6254288;28;20029;-77
2021/05/30 13:32:19;;;;;;;4.53;1.40;;;41.00;16.00;;;;;;6292245;28;20083;-76
2021/05/30 13:35:20;;;;;;;4.00;0.90;;;41.50;15.80;;;;;;6261178;28;20045;-77
2021/05/30 13:38:21;;;;;;;1.83;1.10;;;41.90;15.50;;;;;;6277732;28;20483;-77
2021/05/30 13:41:27;;;;;;;0.85;0.85;;;42.40;15.30;;;;;;6278817;28;20051;-79
2021/05/30 13:44:28;;;;;;;1.95;1.20;;;42.50;15.10;;;;;;6296502;28;20509;-77
2021/05/30 13:47:29;;;;;;;2.70;1.10;;;42.30;15.10;;;;;;6261830;28;20029;-76
2021/05/30 13:50:31;;;;;;;4.70;1.20;;;42.30;15.20;;;;;;6279090;28;20437;-76
2021/05/30 13:53:32;;;;;;;4.35;0.90;;;42.80;15.00;;;;;;6295624;28;20044;-77
2021/05/30 13:56:33;;;;;;;1.40;0.95;;;43.00;14.60;;;;;;6261822;28;20090;-78
2021/05/30 13:59:34;;;;;;;1.90;1.30;;;42.80;14.70;;;;;;6294880;28;20052;-78
2021/05/30 14:02:35;;;;;;;3.45;1.02;;;43.10;14.80;;;;;;6278323;28;20042;-76
2021/05/30 14:05:36;;;;;;;1.27;1.00;;;43.10;14.70;;;;;;6278039;28;20082;-77
2021/05/30 14:08:37;;;;;;;2.15;1.00;;;43.20;14.70;;;;;;6277468;28;20032;-77
2021/05/30 14:11:38;;;;;;;2.88;0.95;;;43.10;14.70;;;;;;6278262;28;20113;-77
2021/05/30 14:14:41;;;;;;;2.13;0.90;;;42.80;14.90;;;;;;6280328;28;20458;-78
2021/05/30 14:17:43;;;;;;;4.10;1.52;;;42.80;14.90;;;;;;6280794;28;20036;-77
2021/05/30 14:20:44;;;;;;;3.40;1.30;;;43.00;15.00;;;;;;6278772;28;20029;-78
2021/05/30 14:23:45;;;;;;;1.00;0.93;;;43.30;14.80;;;;;;6294556;28;20032;-78
2021/05/30 14:26:46;;;;;;;1.20;1.10;;;43.30;14.60;;;;;;6295288;28;20115;-79
2021/05/30 14:29:47;;;;;;;1.65;0.73;;;43.00;14.80;;;;;;6295738;28;20166;-76
2021/05/30 14:32:47;;;;;;;0.80;0.80;;;43.00;14.90;;;;;;6276479;28;20040;-77
2021/05/30 14:35:48;;;;;;;1.00;0.90;;;42.80;14.90;;;;;;6277376;28;20045;-77
2021/05/30 14:38:49;;;;;;;1.63;1.13;;;42.60;14.90;;;;;;6278188;28;20492;-77
2021/05/30 14:41:50;;;;;;;3.80;0.90;;;42.30;15.00;;;;;;6261144;28;20466;-77
2021/05/30 14:44:51;;;;;;;1.20;1.08;;;42.30;15.10;;;;;;6277616;28;20036;-77
2021/05/30 14:47:52;;;;;;;8.98;1.10;;;42.30;15.10;;;;;;6294379;28;20043;-77
2021/05/30 14:50:53;;;;;;;4.07;1.00;;;42.00;15.10;;;;;;6261966;28;20477;-77
2021/05/30 14:53:54;;;;;;;3.40;1.02;;;41.70;15.40;;;;;;6293474;28;20036;-79
2021/05/30 14:56:57;;;;;;;1.00;0.90;;;41.70;15.60;;;;;;6293579;28;20044;-77
2021/05/30 14:59:58;;;;;;;2.03;0.90;;;41.80;15.30;;;;;;6277821;28;20044;-78
2021/05/30 15:02:59;;;;;;;2.60;0.90;;;41.50;15.40;;;;;;6269264;28;20033;-77
2021/05/30 15:06:00;;;;;;;1.15;0.90;;;41.30;15.60;;;;;;6274896;28;20369;-77
2021/05/30 15:09:01;;;;;;;1.15;1.02;;;40.90;15.90;;;;;;6296637;28;20350;-80
2021/05/30 15:12:02;;;;;;;7.03;1.40;;;40.20;16.20;;;;;;6296322;28;20067;-76
2021/05/30 15:15:07;;;;;;;2.85;1.08;;;39.80;16.50;;;;;;6305672;28;20102;-77
2021/05/30 15:18:09;;;;;;;1.05;0.98;;;39.80;16.60;;;;;;6307279;28;20430;-77
2021/05/30 15:21:10;;;;;;;1.40;1.00;;;39.80;16.70;;;;;;6289271;28;20445;-77
2021/05/30 15:24:11;;;;;;;4.05;1.40;;;39.50;16.80;;;;;;6298359;28;20117;-77
2021/05/30 15:27:12;;;;;;;1.33;1.00;;;39.40;17.00;;;;;;6296544;28;20032;-77
2021/05/30 15:30:13;;;;;;;1.52;1.00;;;39.40;16.90;;;;;;6299198;28;20346;-77
2021/05/30 15:33:16;;;;;;;2.53;0.98;;;39.30;16.80;;;;;;6281292;28;20428;-77
2021/05/30 15:40:41;;;;;;;1.67;1.08;;;38.90;17.30;;;;;;6295653;28;20453;-75
2021/05/30 15:43:42;;;;;;;0.93;0.93;;;38.70;17.40;;;;;;6281284;28;20044;-76
2021/05/30 15:46:42;;;;;;;1.20;1.00;;;38.40;17.40;;;;;;6298345;28;20036;-77
2021/05/30 15:49:44;;;;;;;1.10;1.00;;;37.80;17.80;;;;;;6280078;28;20412;-76
2021/05/30 15:52:45;;;;;;;1.02;0.98;;;37.50;18.20;;;;;;6296070;28;20032;-76
2021/05/30 15:55:45;;;;;;;1.75;1.00;;;37.50;18.10;;;;;;6263973;28;20124;-77
2021/05/30 15:58:46;;;;;;;1.10;1.00;;;37.60;18.00;;;;;;6296633;28;20395;-76